createdAt,value
2023-06-15T00:01:39.680Z,2.00
2023-06-15T00:05:42.553Z,1.87
2023-06-15T00:09:44.196Z,2.10
2023-06-15T00:13:45.905Z,1.90
2023-06-15T00:17:48.256Z,2.10
2023-06-15T00:21:51.135Z,2.00
2023-06-15T00:25:52.601Z,2.20
2023-06-15T00:29:54.034Z,1.80
2023-06-15T00:33:55.794Z,1.90
2023-06-15T00:37:58.783Z,1.97
2023-06-15T00:42:00.475Z,1.90
2023-06-15T00:46:02.485Z,1.93
2023-06-15T00:50:04.789Z,1.80
2023-06-15T00:54:09.129Z,1.93
2023-06-15T00:58:11.694Z,1.50
2023-06-15T01:02:13.559Z,1.77
2023-06-15T01:06:16.099Z,1.90
2023-06-15T01:10:22.389Z,1.90
2023-06-15T01:14:29.015Z,1.70
2023-06-15T01:18:33.223Z,1.90
2023-06-15T01:22:43.907Z,1.97
2023-06-15T01:26:49.974Z,2.27
2023-06-15T01:30:53.767Z,1.90
2023-06-15T01:34:55.478Z,1.87
2023-06-15T01:38:58.957Z,1.93
2023-06-15T01:43:04.992Z,1.87
2023-06-15T01:47:07.912Z,1.83
2023-06-15T01:51:11.282Z,2.03
2023-06-15T01:55:13.179Z,1.93
2023-06-15T01:59:16.495Z,1.93
2023-06-15T02:03:18.114Z,2.07
2023-06-15T02:07:19.608Z,1.97
2023-06-15T02:11:21.358Z,1.70
2023-06-15T02:15:24.232Z,1.97
2023-06-15T02:19:25.769Z,1.83
2023-06-15T02:23:27.282Z,2.30
2023-06-15T02:27:28.801Z,2.13
2023-06-15T02:31:31.601Z,1.77
2023-06-15T02:35:33.078Z,2.00
2023-06-15T02:39:34.512Z,1.90
2023-06-15T02:43:35.966Z,2.40
2023-06-15T02:47:38.875Z,1.90
2023-06-15T02:51:42.157Z,2.20
2023-06-15T02:55:44.565Z,2.00
2023-06-15T02:59:46.616Z,2.00
2023-06-15T03:03:49.455Z,2.20
2023-06-15T03:07:50.897Z,2.00
2023-06-15T03:11:52.571Z,2.30
2023-06-15T03:15:54.756Z,2.40
2023-06-15T03:19:58.449Z,2.23
2023-06-15T03:24:00.224Z,2.37
2023-06-15T03:28:02.146Z,2.37
2023-06-15T03:32:05.031Z,2.63
2023-06-15T03:36:08.087Z,2.73
2023-06-15T03:40:11.928Z,2.70
2023-06-15T03:44:13.988Z,2.33
2023-06-15T03:48:15.400Z,2.60
2023-06-15T03:52:18.739Z,2.50
2023-06-15T03:56:20.485Z,2.43
2023-06-15T04:00:22.108Z,2.63
2023-06-15T04:04:23.825Z,2.63
2023-06-15T04:08:26.654Z,2.47
2023-06-15T04:12:28.090Z,2.27
2023-06-15T04:16:29.597Z,2.20
2023-06-15T04:20:31.369Z,2.20
2023-06-15T04:24:34.262Z,2.33
2023-06-15T04:28:35.667Z,2.80
2023-06-15T04:32:37.410Z,2.40
2023-06-15T04:36:38.976Z,2.70
2023-06-15T04:40:42.243Z,2.47
2023-06-15T04:44:43.678Z,2.50
2023-06-15T04:48:45.452Z,2.57
2023-06-15T04:52:46.920Z,2.37
2023-06-15T04:56:52.536Z,2.50
2023-06-15T05:00:53.991Z,2.10
2023-06-15T05:04:55.472Z,2.53
2023-06-15T05:08:56.965Z,2.20
2023-06-15T05:12:59.754Z,2.40
2023-06-15T05:17:01.403Z,2.57
2023-06-15T05:21:02.876Z,2.10
2023-06-15T05:25:05.255Z,2.30
2023-06-15T05:29:08.056Z,2.40
2023-06-15T05:33:09.579Z,2.20
2023-06-15T05:37:12.782Z,2.60
2023-06-15T05:41:14.365Z,2.70
2023-06-15T05:45:18.287Z,2.80
2023-06-15T05:49:20.054Z,2.10
2023-06-15T05:53:21.593Z,2.50
2023-06-15T05:57:24.154Z,2.57
2023-06-15T06:01:26.940Z,2.33
2023-06-15T06:05:28.383Z,2.17
2023-06-15T06:09:30.978Z,2.37
2023-06-15T06:13:34.466Z,2.60
2023-06-15T06:17:53.246Z,2.60
2023-06-15T06:21:59.030Z,2.43
2023-06-15T06:26:01.506Z,2.43
2023-06-15T06:30:03.519Z,2.70
2023-06-15T06:34:07.777Z,2.77
2023-06-15T06:38:09.327Z,2.70
2023-06-15T06:42:10.843Z,2.77
2023-06-15T06:46:12.284Z,2.80
2023-06-15T06:50:16.634Z,2.50
2023-06-15T06:54:18.386Z,2.90
2023-06-15T06:58:20.194Z,3.03
2023-06-15T07:02:21.819Z,3.00
2023-06-15T07:06:24.767Z,2.57
2023-06-15T07:10:26.453Z,2.60
2023-06-15T07:14:28.452Z,2.93
2023-06-15T07:18:30.181Z,3.10
2023-06-15T07:22:33.084Z,2.40
2023-06-15T07:26:34.640Z,2.50
2023-06-15T07:30:36.133Z,2.37
2023-06-15T07:34:37.971Z,3.07
2023-06-15T07:38:40.854Z,2.50
2023-06-15T07:42:42.682Z,2.70
2023-06-15T07:46:44.433Z,2.40
2023-06-15T07:50:46.462Z,2.63
2023-06-15T07:54:49.481Z,2.40
2023-06-15T07:58:51.174Z,2.53
2023-06-15T08:02:53.935Z,2.37
2023-06-15T08:06:55.451Z,2.50
2023-06-15T08:11:00.285Z,2.30
2023-06-15T08:15:01.746Z,2.50
2023-06-15T08:19:03.520Z,2.60
2023-06-15T08:23:04.962Z,2.33
2023-06-15T08:27:08.281Z,2.27
2023-06-15T08:31:10.998Z,2.40
2023-06-15T08:35:12.581Z,2.67
2023-06-15T08:39:14.324Z,2.40
2023-06-15T08:43:19.649Z,2.50
2023-06-15T08:47:21.751Z,2.50
2023-06-15T08:51:23.630Z,2.50
2023-06-15T08:55:26.523Z,2.40
2023-06-15T08:59:30.157Z,2.60
2023-06-15T09:03:33.613Z,2.83
2023-06-15T09:07:35.100Z,2.67
2023-06-15T09:11:40.345Z,2.80
2023-06-15T09:15:44.670Z,2.90
2023-06-15T09:19:46.403Z,2.57
2023-06-15T09:23:48.678Z,3.00
2023-06-15T09:27:57.551Z,2.53
2023-06-15T09:32:02.704Z,2.78
2023-06-15T09:36:06.674Z,2.80
2023-06-15T09:40:09.579Z,2.53
2023-06-15T09:44:11.354Z,2.53
2023-06-15T09:48:14.946Z,2.80
2023-06-15T09:52:16.461Z,2.90
2023-06-15T09:56:28.837Z,2.42
2023-06-15T10:00:33.611Z,2.78
2023-06-15T10:04:39.924Z,2.60
2023-06-15T10:08:43.911Z,3.05
2023-06-15T10:12:49.486Z,2.72
2023-06-15T10:16:59.429Z,2.60
2023-06-15T10:21:05.280Z,2.55
2023-06-15T10:25:09.275Z,2.58
2023-06-15T10:29:17.734Z,2.80
2023-06-15T10:33:24.069Z,2.72
2023-06-15T10:37:31.545Z,2.50
2023-06-15T10:41:33.331Z,2.58
2023-06-15T10:45:35.332Z,2.58
2023-06-15T10:49:37.306Z,3.17
2023-06-15T10:53:43.247Z,2.80
2023-06-15T10:57:44.699Z,2.90
2023-06-15T11:01:46.370Z,3.00
2023-06-15T11:05:47.858Z,2.80
2023-06-15T11:09:53.253Z,3.00
2023-06-15T11:13:59.753Z,2.70
2023-06-15T11:18:02.571Z,3.00
2023-06-15T11:22:05.760Z,2.80
2023-06-15T11:26:15.106Z,2.70
2023-06-15T11:30:16.848Z,2.80
2023-06-15T11:34:19.954Z,2.95
2023-06-15T11:38:24.641Z,3.08
2023-06-15T11:42:27.937Z,3.10
2023-06-15T11:46:29.738Z,3.17
2023-06-15T11:50:31.183Z,3.05
2023-06-15T11:54:50.512Z,2.67
2023-06-15T11:58:55.239Z,3.13
2023-06-15T12:02:57.990Z,3.15
2023-06-15T12:07:00.747Z,3.22
2023-06-15T12:11:03.805Z,3.00
2023-06-15T12:15:07.702Z,2.88
2023-06-15T12:19:09.958Z,3.20
2023-06-15T12:23:11.557Z,3.10
2023-06-15T12:27:14.049Z,2.92
2023-06-15T12:31:17.170Z,2.97
2023-06-15T12:35:29.834Z,3.22
2023-06-15T12:39:31.546Z,3.03
2023-06-15T12:43:33.042Z,2.80
2023-06-15T12:47:35.912Z,3.08
2023-06-15T12:51:38.672Z,3.20
2023-06-15T12:55:40.389Z,2.55
2023-06-15T12:59:43.027Z,3.40
2023-06-15T13:03:46.098Z,3.33
2023-06-15T13:07:48.611Z,3.33
2023-06-15T13:11:50.077Z,2.65
2023-06-15T13:15:51.734Z,3.20
2023-06-15T13:19:54.489Z,3.40
2023-06-15T13:23:55.979Z,3.13
2023-06-15T13:27:57.692Z,2.75
2023-06-15T13:31:59.217Z,3.05
2023-06-15T13:36:03.487Z,3.20
2023-06-15T13:40:07.355Z,3.13
2023-06-15T13:44:09.167Z,3.20
2023-06-15T13:48:12.959Z,3.05
2023-06-15T13:52:16.087Z,3.28
2023-06-15T13:56:18.600Z,3.08
2023-06-15T14:00:21.217Z,3.20
2023-06-15T14:04:23.059Z,3.20
2023-06-15T14:08:26.530Z,3.13
2023-06-15T14:12:31.851Z,3.30
2023-06-15T14:16:33.683Z,3.10
2023-06-15T14:20:35.466Z,2.95
2023-06-15T14:24:39.386Z,3.22
2023-06-15T14:28:40.861Z,3.10
2023-06-15T14:32:42.435Z,2.95
2023-06-15T14:36:45.973Z,3.03
2023-06-15T14:40:49.340Z,3.10
2023-06-15T14:44:51.067Z,2.83
2023-06-15T14:48:52.634Z,2.95
2023-06-15T14:53:00.288Z,3.20
2023-06-15T14:57:03.990Z,2.80
2023-06-15T15:01:05.963Z,2.70
2023-06-15T15:05:10.152Z,2.60
2023-06-15T15:09:12.076Z,2.92
2023-06-15T15:13:18.158Z,2.85
2023-06-15T15:17:21.627Z,2.58
2023-06-15T15:21:24.455Z,2.83
2023-06-15T15:25:26.921Z,3.17
2023-06-15T15:29:30.163Z,3.08
2023-06-15T15:33:32.295Z,3.10
2023-06-15T15:37:34.586Z,2.92
2023-06-15T15:41:38.062Z,2.78
2023-06-15T15:45:41.189Z,2.75
2023-06-15T15:49:44.307Z,2.90
2023-06-15T15:53:46.304Z,3.13
2023-06-15T15:57:47.742Z,3.03
2023-06-15T16:01:50.620Z,3.08
2023-06-15T16:05:52.366Z,3.15
2023-06-15T16:09:54.800Z,2.72
2023-06-15T16:13:56.454Z,3.13
2023-06-15T16:17:59.698Z,2.80
2023-06-15T16:22:01.227Z,2.70
2023-06-15T16:26:02.785Z,2.50
2023-06-15T16:30:08.870Z,2.95
2023-06-15T16:34:16.819Z,3.05
2023-06-15T16:38:18.538Z,2.53
2023-06-15T16:42:23.436Z,2.90
2023-06-15T16:46:26.056Z,2.63
2023-06-15T16:50:31.525Z,2.67
2023-06-15T16:54:33.972Z,2.60
2023-06-15T16:58:35.636Z,2.47
2023-06-15T17:02:39.416Z,2.65
2023-06-15T17:06:44.556Z,2.40
2023-06-15T17:10:46.540Z,3.97
2023-06-15T17:14:48.151Z,2.80
2023-06-15T17:18:51.191Z,2.70
2023-06-15T17:22:54.135Z,2.55
2023-06-15T17:26:58.031Z,2.75
2023-06-15T17:31:00.791Z,2.50
2023-06-15T17:35:03.914Z,2.90
2023-06-15T17:39:06.870Z,2.88
2023-06-15T17:43:08.802Z,2.65
2023-06-15T17:47:10.885Z,2.90
2023-06-15T17:51:12.410Z,2.80
2023-06-15T17:55:15.693Z,2.65
2023-06-15T17:59:17.572Z,2.55
2023-06-15T18:03:19.560Z,2.67
2023-06-15T18:07:21.238Z,2.92
2023-06-15T18:11:24.417Z,2.78
2023-06-15T18:15:26.308Z,2.95
2023-06-15T18:19:28.582Z,2.92
2023-06-15T18:23:30.451Z,2.70
2023-06-15T18:27:33.478Z,2.70
2023-06-15T18:31:36.354Z,2.73
2023-06-15T18:35:38.068Z,3.20
2023-06-15T18:39:39.663Z,2.70
2023-06-15T18:43:44.919Z,3.00
2023-06-15T18:47:46.482Z,2.50
2023-06-15T18:51:49.369Z,2.90
2023-06-15T18:55:51.118Z,2.57
2023-06-15T18:59:54.036Z,2.50
2023-06-15T19:03:55.598Z,3.00
2023-06-15T19:07:57.252Z,2.90
2023-06-15T19:11:58.929Z,2.30
2023-06-15T19:16:02.366Z,2.47
2023-06-15T19:20:04.936Z,2.73
2023-06-15T19:24:08.750Z,2.30
2023-06-15T19:28:10.548Z,2.50
2023-06-15T19:32:14.711Z,2.80
2023-06-15T19:36:16.261Z,2.57
2023-06-15T19:40:18.174Z,2.60
2023-06-15T19:44:23.020Z,2.70
2023-06-15T19:48:26.203Z,2.90
2023-06-15T19:52:27.728Z,2.77
2023-06-15T19:56:29.631Z,2.87
2023-06-15T20:00:31.383Z,2.80
2023-06-15T20:04:34.562Z,2.97
2023-06-15T20:08:39.901Z,2.70
2023-06-15T20:12:41.610Z,2.97
2023-06-15T20:16:43.192Z,3.17
2023-06-15T20:20:46.237Z,3.30
2023-06-15T20:24:48.364Z,3.00
2023-06-15T20:28:50.221Z,3.33
2023-06-15T20:32:51.813Z,3.20
2023-06-15T20:36:54.699Z,2.90
2023-06-15T20:40:58.917Z,2.87
2023-06-15T20:45:02.213Z,3.20
2023-06-15T20:49:04.960Z,2.77
2023-06-15T20:53:09.225Z,2.80
2023-06-15T20:57:12.278Z,2.70
2023-06-15T21:01:15.280Z,3.07
2023-06-15T21:05:17.359Z,3.17
2023-06-15T21:09:20.720Z,3.00
2023-06-15T21:13:22.481Z,3.27
2023-06-15T21:17:25.438Z,2.80
2023-06-15T21:21:27.774Z,3.07
2023-06-15T21:25:31.376Z,2.90
2023-06-15T21:29:34.472Z,3.50
2023-06-15T21:33:38.457Z,3.23
2023-06-15T21:37:40.147Z,2.93
2023-06-15T21:41:44.079Z,3.17
2023-06-15T21:45:47.053Z,3.17
2023-06-15T21:49:49.538Z,3.20
2023-06-15T21:53:52.174Z,2.97
2023-06-15T21:57:55.973Z,3.07
2023-06-15T22:02:03.553Z,3.00
2023-06-15T22:06:05.448Z,2.90
2023-06-15T22:10:09.531Z,3.23
2023-06-15T22:14:12.798Z,3.50
2023-06-15T22:18:15.742Z,3.40
2023-06-15T22:22:17.374Z,2.90
2023-06-15T22:26:19.649Z,3.07
2023-06-15T22:30:22.910Z,3.33
2023-06-15T22:34:25.132Z,3.27
2023-06-15T22:38:27.439Z,3.27
2023-06-15T22:42:29.062Z,3.50
2023-06-15T22:46:32.459Z,3.40
2023-06-15T22:50:34.250Z,3.13
2023-06-15T22:54:36.757Z,3.17
2023-06-15T22:58:38.766Z,3.33
2023-06-15T23:02:41.992Z,3.43
2023-06-15T23:06:45.183Z,3.30
2023-06-15T23:10:46.842Z,3.17
2023-06-15T23:14:48.735Z,3.33
2023-06-15T23:18:54.988Z,3.20
2023-06-15T23:22:56.904Z,3.10
2023-06-15T23:26:58.811Z,3.00
2023-06-15T23:31:01.013Z,3.37
2023-06-15T23:35:08.685Z,3.40
2023-06-15T23:39:12.405Z,3.53
2023-06-15T23:43:15.302Z,2.90
2023-06-15T23:47:17.120Z,3.40
2023-06-15T23:51:21.851Z,3.20
2023-06-15T23:55:23.979Z,3.70
2023-06-15T23:59:25.792Z,3.07
